Milei Airstrip

AYEI · Northern Province, 巴布亚新几内亚

罗盘
风向 的 风向 140°
风向 到 风: 5 kt, 阵阵 10 kt, 2 beaufort

添加一条跑道以查看侧风和逆风信息。

添置 跑道
0 1.000 2.000 3.000 4.000 5.000
FEW 3.000 ft
SCT 5.000 ft
METAR AYPY 050000Z 14005G10KT 9999 HZ FEW030 SCT050 30/23 Q1009

METAR Milei Airstrip - AYEI

Milei Airstrip是,巴布亚新几内亚中的小机场。 视场标高为2.160 ft。 该领域的国际民航组织标志是AYEI.

这份报告是针对2022年12月5日 10:00, 当地时间在傑克遜斯國際機場进行的。

机场观察

风向为140°,速度为5 kt。 已测得10 kt的阵风。

可见度为10 km 或者更多。

有几云在3.000 ft的高度 和 疏云,零星散落的云朵在5.000 ft的高度。 没有观察到天花板。

当前天气为阴霾。 温度和风寒是30 °C。 热指数为34。 露点为23 °C,相对湿度为66%。 海平面上的气压为1009 hPa (QNH)。

白天

今天,太阳从05:41升起,在18:18降落。 这适用于Milei Airstrip,世界夏令时可能有所不同。 当地时间与世界标准时间之间的时差为+10 小时。 当前,没有夏令时有效。

公司介绍

我们没有关于这个机场的公司信息。

体会

到Vliegles.nl去找飞行课程,跳伞和其他飞行体验。 浏览页面,了解Milei Airstrip附近所有可用的活动。 你也可以使用搜索功能来寻找你所在地附近的特定飞行课程、跳伞或其他飞行体验。

乌云

3.000 ft FEW 几云
5.000 ft SCT 疏云,零星散落的云朵

温度 & 天气

天气 阴霾
温度 30 °C
露点 23 °C
相对湿度 66%
热度指数 34 °C
Kp-index 0 (0-9)

白天

日出
05:42
中午
12:01
日落
18:20 (7:52)

小工具

你想在你的网站上有一个关于Milei Airstrip的当前航空天气(METAR)的小部件吗?

显示HTML代码

我们和第三方通过cookies跟踪您在我们网站上的互联网行为。如果你继续,我们认为你同意我们的饼干政策